Time;durP1;ratioP1;P1;durP2;ratioP2;P2;SDS_P1;SDS_P2;PMS_P1;PMS_P2;Temp;Humidity;BMP_temperature;BMP_pressure;BME280_temperature;BME280_humidity;BME280_pressure;Samples;Min_cycle;Max_cycle;Signal;HPM_P1;HPM_P2
2023/05/11 00:01:27;;;;;;;;;;;18.80;63.90;;;;;;5054893;28;20269;-67
2023/05/11 00:03:54;;;;;;;;;;;18.80;64.00;;;;;;5053474;28;20299;-68
2023/05/11 00:06:20;;;;;;;;;;;18.80;64.00;;;;;;5054837;28;19932;-68
2023/05/11 00:08:46;;;;;;;;;;;18.80;64.00;;;;;;5053671;28;19921;-68
2023/05/11 00:11:11;;;;;;;;;;;18.80;64.00;;;;;;5053421;28;20014;-68
2023/05/11 00:13:36;;;;;;;;;;;18.80;64.00;;;;;;5053593;28;20008;-68
2023/05/11 00:16:03;;;;;;;;;;;18.70;63.90;;;;;;5053667;28;19924;-68
2023/05/11 00:18:28;;;;;;;;;;;18.70;64.00;;;;;;5053457;28;20473;-68
2023/05/11 00:20:57;;;;;;;;;;;18.70;64.00;;;;;;5054544;28;19928;-68
2023/05/11 00:23:23;;;;;;;;;;;18.70;64.00;;;;;;5053535;28;19956;-68
2023/05/11 00:25:48;;;;;;;;;;;18.70;64.00;;;;;;5069566;28;19971;-68
2023/05/11 00:28:14;;;;;;;;;;;18.70;64.10;;;;;;5069832;28;20399;-68
2023/05/11 00:30:40;;;;;;;;;;;18.70;64.10;;;;;;5053219;28;19925;-68
2023/05/11 00:33:05;;;;;;;;;;;18.70;64.10;;;;;;5054625;28;19925;-68
2023/05/11 00:35:31;;;;;;;;;;;18.70;64.10;;;;;;5054314;28;20304;-68
2023/05/11 00:37:57;;;;;;;;;;;18.70;64.10;;;;;;5053351;28;19921;-68
2023/05/11 00:40:23;;;;;;;;;;;18.70;64.10;;;;;;5054002;28;19925;-68
2023/05/11 00:42:48;;;;;;;;;;;18.70;64.10;;;;;;5054071;28;20016;-68
2023/05/11 00:45:13;;;;;;;;;;;18.70;64.10;;;;;;5054152;28;19925;-68
2023/05/11 00:47:40;;;;;;;;;;;18.70;64.20;;;;;;5069865;28;19925;-67
2023/05/11 00:50:07;;;;;;;;;;;18.70;64.10;;;;;;5054187;28;20292;-68
2023/05/11 00:52:33;;;;;;;;;;;18.60;64.10;;;;;;5054059;28;20015;-68
2023/05/11 00:54:58;;;;;;;;;;;18.60;64.10;;;;;;5069735;28;19924;-68
2023/05/11 00:57:24;;;;;;;;;;;18.60;64.10;;;;;;5053927;28;20011;-68
2023/05/11 00:59:49;;;;;;;;;;;18.60;64.20;;;;;;5069454;28;20368;-68
2023/05/11 01:02:16;;;;;;;;;;;18.60;64.20;;;;;;5054090;28;19928;-68
2023/05/11 01:04:41;;;;;;;;;;;18.60;64.20;;;;;;5053903;28;20090;-68
2023/05/11 01:07:11;;;;;;;;;;;18.60;64.20;;;;;;5069430;28;20002;-68
2023/05/11 01:09:45;;;;;;;;;;;18.60;64.20;;;;;;5052751;28;20269;-68
2023/05/11 01:12:14;;;;;;;;;;;18.60;64.20;;;;;;5052448;28;20384;-68
2023/05/11 01:14:44;;;;;;;;;;;18.60;64.30;;;;;;5052341;28;20295;-68
2023/05/11 01:17:13;;;;;;;;;;;18.60;64.20;;;;;;5053816;28;20011;-68
2023/05/11 01:22:29;;;;;;;;;;;18.60;64.20;;;;;;5110320;27;19919;-68
2023/05/11 01:25:05;;;;;;;;;;;18.60;64.20;;;;;;5108801;28;19920;-68
2023/05/11 01:27:42;;;;;;;;;;;18.60;64.20;;;;;;5108879;28;19920;-68
2023/05/11 01:30:23;;;;;;;;;;;18.60;64.20;;;;;;5109235;28;19973;-68
2023/05/11 01:32:49;;;;;;;;;;;18.50;64.20;;;;;;5109081;28;20282;-68
2023/05/11 01:35:18;;;;;;;;;;;18.50;64.30;;;;;;5109002;28;20641;-68
2023/05/11 01:37:48;;;;;;;;;;;18.50;64.20;;;;;;5108925;28;20032;-68
2023/05/11 01:40:14;;;;;;;;;;;18.50;64.20;;;;;;5108732;28;19934;-68
2023/05/11 01:42:42;;;;;;;;;;;18.50;64.20;;;;;;5108624;28;20428;-68
2023/05/11 01:45:09;;;;;;;;;;;18.50;64.30;;;;;;5109731;28;19924;-68
2023/05/11 01:47:36;;;;;;;;;;;18.60;64.30;;;;;;5108847;28;19935;-68
2023/05/11 01:50:02;;;;;;;;;;;18.50;64.20;;;;;;5109652;28;20291;-68
2023/05/11 01:52:30;;;;;;;;;;;18.50;64.20;;;;;;5108704;28;19927;-68
2023/05/11 01:54:57;;;;;;;;;;;18.50;64.30;;;;;;5109755;28;19934;-68
2023/05/11 01:57:24;;;;;;;;;;;18.50;64.30;;;;;;5108632;28;19989;-67
2023/05/11 01:59:50;;;;;;;;;;;18.50;64.30;;;;;;5108560;28;20264;-67
2023/05/11 02:02:17;;;;;;;;;;;18.60;64.30;;;;;;5108613;28;19977;-68
2023/05/11 02:04:43;;;;;;;;;;;18.50;64.30;;;;;;5109400;28;19965;-68
2023/05/11 02:07:09;;;;;;;;;;;18.50;64.30;;;;;;5109380;28;19924;-68
2023/05/11 02:09:35;;;;;;;;;;;18.50;64.30;;;;;;5108711;28;20389;-68
2023/05/11 02:12:02;;;;;;;;;;;18.50;64.30;;;;;;5107944;28;20283;-68
2023/05/11 02:14:28;;;;;;;;;;;18.50;64.20;;;;;;5109436;28;19924;-68
2023/05/11 02:16:55;;;;;;;;;;;18.50;64.30;;;;;;5107880;28;20002;-68
2023/05/11 02:19:20;;;;;;;;;;;18.50;64.30;;;;;;5107936;28;19920;-68
2023/05/11 02:21:46;;;;;;;;;;;18.50;64.30;;;;;;5107521;28;19931;-67
2023/05/11 02:24:13;;;;;;;;;;;18.40;64.20;;;;;;5108139;28;19920;-68
2023/05/11 02:26:39;;;;;;;;;;;18.50;64.30;;;;;;5107906;28;19920;-68
2023/05/11 02:29:04;;;;;;;;;;;18.40;64.30;;;;;;5108010;28;20435;-68
2023/05/11 02:31:31;;;;;;;;;;;18.50;64.30;;;;;;5106694;28;20376;-68
2023/05/11 02:34:03;;;;;;;;;;;18.50;64.30;;;;;;5093699;28;19920;-68
2023/05/11 02:36:29;;;;;;;;;;;18.60;64.20;;;;;;5093561;28;19920;-68
2023/05/11 02:38:57;;;;;;;;;;;18.90;63.70;;;;;;5095501;28;19935;-68
2023/05/11 02:41:25;;;;;;;;;;;19.20;63.10;;;;;;5095177;28;20307;-67
2023/05/11 02:43:52;;;;;;;;;;;19.60;62.40;;;;;;5094160;28;20477;-68
2023/05/11 02:46:22;;;;;;;;;;;20.20;61.30;;;;;;5095022;28;20281;-68
2023/05/11 02:48:53;;;;;;;;;;;20.80;59.80;;;;;;5093808;28;19927;-65
2023/05/11 02:51:22;;;;;;;;;;;21.40;58.30;;;;;;5095252;28;19920;-68
2023/05/11 02:53:48;;;;;;;;;;;22.00;56.90;;;;;;5093929;28;19943;-65
2023/05/11 02:56:14;;;;;;;;;;;22.50;55.70;;;;;;5093758;28;19924;-68
2023/05/11 02:58:39;;;;;;;;;;;22.90;54.60;;;;;;5094194;28;19989;-67
2023/05/11 03:01:05;;;;;;;;;;;23.20;53.90;;;;;;5093553;28;20280;-65
2023/05/11 03:03:31;;;;;;;;;;;23.40;53.30;;;;;;5093698;28;20014;-68
2023/05/11 03:05:56;;;;;;;;;;;23.50;52.70;;;;;;5093453;28;20004;-68
2023/05/11 03:08:22;;;;;;;;;;;23.60;52.60;;;;;;5094807;28;19973;-65
2023/05/11 03:10:49;;;;;;;;;;;23.60;52.40;;;;;;5094771;28;19963;-68
2023/05/11 03:13:15;;;;;;;;;;;23.50;52.40;;;;;;5093293;28;20375;-68
2023/05/11 03:15:41;;;;;;;;;;;23.40;52.50;;;;;;5093598;28;19970;-67
2023/05/11 03:18:07;;;;;;;;;;;23.30;52.70;;;;;;5093115;28;20409;-67
2023/05/11 03:20:35;;;;;;;;;;;23.20;52.90;;;;;;5099728;28;19924;-68
2023/05/11 03:23:00;;;;;;;;;;;23.00;53.10;;;;;;5114764;28;20430;-67
2023/05/11 03:25:27;;;;;;;;;;;22.80;53.50;;;;;;5096749;28;20002;-68
2023/05/11 03:27:54;;;;;;;;;;;22.60;53.70;;;;;;5114641;28;19963;-67
2023/05/11 03:30:21;;;;;;;;;;;22.50;54.20;;;;;;5096715;28;19973;-65
2023/05/11 03:32:47;;;;;;;;;;;22.30;54.40;;;;;;5096257;28;19927;-68
2023/05/11 03:35:12;;;;;;;;;;;22.20;54.70;;;;;;5096567;28;20314;-68
2023/05/11 03:37:38;;;;;;;;;;;22.00;55.00;;;;;;5114496;28;19919;-68
2023/05/11 03:40:04;;;;;;;;;;;21.90;55.20;;;;;;5096339;28;19975;-68
2023/05/11 03:42:29;;;;;;;;;;;21.80;55.60;;;;;;5096425;28;19927;-67
2023/05/11 03:44:58;;;;;;;;;;;21.60;55.80;;;;;;5094975;28;19920;-65
2023/05/11 03:47:26;;;;;;;;;;;21.50;56.00;;;;;;5114440;28;19924;-67
2023/05/11 03:49:52;;;;;;;;;;;21.30;56.20;;;;;;5096216;28;20012;-64
2023/05/11 03:52:18;;;;;;;;;;;21.20;56.50;;;;;;5095889;28;19959;-65
2023/05/11 03:54:44;;;;;;;;;;;21.10;56.70;;;;;;5114242;28;19923;-67
2023/05/11 03:57:10;;;;;;;;;;;21.00;56.90;;;;;;5096154;28;19919;-68
2023/05/11 03:59:37;;;;;;;;;;;21.00;57.10;;;;;;5095726;28;19919;-67
2023/05/11 04:02:03;;;;;;;;;;;21.00;57.20;;;;;;5095701;28;19938;-65
2023/05/11 04:04:30;;;;;;;;;;;21.00;57.10;;;;;;5113751;28;19920;-67
2023/05/11 04:06:56;;;;;;;;;;;21.10;57.00;;;;;;5095960;28;19920;-67
2023/05/11 04:09:21;;;;;;;;;;;21.10;56.80;;;;;;5113803;28;19920;-68
2023/05/11 04:11:47;;;;;;;;;;;21.10;56.60;;;;;;5095453;28;19919;-67
2023/05/11 04:14:12;;;;;;;;;;;21.10;56.60;;;;;;5095399;28;19919;-67
2023/05/11 04:16:38;;;;;;;;;;;21.20;56.50;;;;;;5095396;28;19926;-68
2023/05/11 04:19:03;;;;;;;;;;;21.20;56.40;;;;;;5095607;28;19923;-68
2023/05/11 04:21:29;;;;;;;;;;;21.30;56.20;;;;;;5113204;28;20363;-68
2023/05/11 04:23:55;;;;;;;;;;;21.30;56.20;;;;;;5112865;28;19970;-68
2023/05/11 04:26:21;;;;;;;;;;;21.40;56.10;;;;;;5113613;28;20374;-68
2023/05/11 04:28:46;;;;;;;;;;;21.30;56.00;;;;;;5113463;28;19926;-67
2023/05/11 04:31:12;;;;;;;;;;;21.40;55.90;;;;;;5095123;28;19919;-68
2023/05/11 04:33:37;;;;;;;;;;;21.40;55.90;;;;;;5095621;28;19927;-68
2023/05/11 04:36:03;;;;;;;;;;;21.40;55.80;;;;;;5095241;28;20022;-65
2023/05/11 04:38:29;;;;;;;;;;;21.40;55.80;;;;;;5113543;28;20379;-68
2023/05/11 04:40:55;;;;;;;;;;;21.40;55.70;;;;;;5113283;28;20001;-67
2023/05/11 04:43:21;;;;;;;;;;;21.50;55.70;;;;;;5095268;28;19934;-68
2023/05/11 04:45:47;;;;;;;;;;;21.50;55.60;;;;;;5095243;28;20370;-68
2023/05/11 04:48:13;;;;;;;;;;;21.50;55.60;;;;;;5095160;28;19930;-65
2023/05/11 04:50:39;;;;;;;;;;;21.50;55.60;;;;;;5095082;28;19920;-64
2023/05/11 04:53:04;;;;;;;;;;;21.50;55.50;;;;;;5095137;28;20363;-67
2023/05/11 04:55:30;;;;;;;;;;;21.50;55.50;;;;;;5094546;28;19949;-64
2023/05/11 04:57:55;;;;;;;;;;;21.50;55.60;;;;;;5094771;28;19920;-67
2023/05/11 05:00:21;;;;;;;;;;;21.50;55.60;;;;;;5094725;28;20015;-66
2023/05/11 05:02:46;;;;;;;;;;;21.40;55.50;;;;;;5112988;28;19920;-67
2023/05/11 05:05:12;;;;;;;;;;;21.40;55.60;;;;;;5094868;28;19927;-65
2023/05/11 05:07:37;;;;;;;;;;;21.40;55.60;;;;;;5094468;28;20033;-68
2023/05/11 05:10:07;;;;;;;;;;;21.40;55.60;;;;;;5094649;28;20010;-68
2023/05/11 05:12:36;;;;;;;;;;;21.40;55.60;;;;;;5094829;28;19932;-68
2023/05/11 05:15:02;;;;;;;;;;;21.40;55.60;;;;;;5112933;28;19961;-68
2023/05/11 05:17:27;;;;;;;;;;;21.40;55.50;;;;;;5112647;28;19924;-68
2023/05/11 05:19:53;;;;;;;;;;;21.40;55.40;;;;;;5094839;28;19977;-68
2023/05/11 05:22:18;;;;;;;;;;;21.40;55.60;;;;;;5094273;28;20564;-68
2023/05/11 05:24:44;;;;;;;;;;;21.40;55.40;;;;;;5094701;28;19927;-68
2023/05/11 05:27:09;;;;;;;;;;;21.50;55.50;;;;;;5094720;28;20349;-67
2023/05/11 05:29:35;;;;;;;;;;;21.40;55.50;;;;;;5094387;28;20436;-68
2023/05/11 05:32:00;;;;;;;;;;;21.40;56.20;;;;;;5094629;28;19920;-68
2023/05/11 05:34:26;;;;;;;;;;;21.40;55.40;;;;;;5111736;28;20378;-68
2023/05/11 05:36:51;;;;;;;;;;;21.40;55.40;;;;;;5112415;28;19924;-67
2023/05/11 05:39:17;;;;;;;;;;;21.40;55.40;;;;;;5110173;28;20395;-66
2023/05/11 05:41:42;;;;;;;;;;;21.40;55.50;;;;;;5091087;28;19923;-70
2023/05/11 05:44:08;;;;;;;;;;;21.40;55.60;;;;;;5092531;28;20454;-65
2023/05/11 05:46:34;;;;;;;;;;;21.40;55.60;;;;;;5092230;28;19924;-70
2023/05/11 05:48:59;;;;;;;;;;;21.30;55.60;;;;;;5107760;28;19924;-70
2023/05/11 05:51:25;;;;;;;;;;;21.30;55.60;;;;;;5090400;28;19920;-65
2023/05/11 05:53:50;;;;;;;;;;;21.20;55.80;;;;;;5091888;28;19919;-70
2023/05/11 05:56:16;;;;;;;;;;;21.10;56.10;;;;;;5092953;28;19920;-71
2023/05/11 05:58:42;;;;;;;;;;;21.00;56.40;;;;;;5091325;28;19934;-70
2023/05/11 06:01:07;;;;;;;;;;;21.00;56.60;;;;;;5090573;28;20010;-71
2023/05/11 06:03:33;;;;;;;;;;;21.00;56.80;;;;;;5089775;28;20011;-72
2023/05/11 06:06:00;;;;;;;;;;;20.90;56.90;;;;;;5089095;28;19919;-71
2023/05/11 06:08:26;;;;;;;;;;;21.00;57.10;;;;;;5099279;28;19927;-67
2023/05/11 06:10:52;;;;;;;;;;;21.00;57.10;;;;;;5084092;28;19920;-70
2023/05/11 06:13:17;;;;;;;;;;;21.10;57.00;;;;;;5090498;28;20014;-69
2023/05/11 06:15:43;;;;;;;;;;;21.20;56.90;;;;;;5084286;28;19954;-63
2023/05/11 06:18:08;;;;;;;;;;;21.30;56.70;;;;;;5088578;28;19923;-64
2023/05/11 06:20:34;;;;;;;;;;;21.40;56.50;;;;;;5077051;28;20156;-69
2023/05/11 06:22:59;;;;;;;;;;;21.50;56.30;;;;;;5076913;28;19923;-70
2023/05/11 06:25:26;;;;;;;;;;;21.60;56.10;;;;;;5101378;28;19967;-69
2023/05/11 06:27:52;;;;;;;;;;;21.70;55.90;;;;;;5117608;27;20010;-70
2023/05/11 06:30:17;;;;;;;;;;;21.80;55.80;;;;;;5102120;28;20347;-70
2023/05/11 06:32:43;;;;;;;;;;;21.80;55.60;;;;;;5083701;28;20192;-70
2023/05/11 06:35:09;;;;;;;;;;;21.80;55.70;;;;;;5066633;28;19950;-69
2023/05/11 06:37:34;;;;;;;;;;;21.80;55.80;;;;;;5071060;28;20360;-64
2023/05/11 06:40:00;;;;;;;;;;;21.80;56.00;;;;;;5070679;28;19915;-64
2023/05/11 06:42:27;;;;;;;;;;;21.70;56.10;;;;;;5086170;28;19977;-68
2023/05/11 06:44:52;;;;;;;;;;;21.70;56.30;;;;;;5077505;28;19927;-67
2023/05/11 06:47:18;;;;;;;;;;;21.80;56.60;;;;;;5072714;28;19950;-67
2023/05/11 06:49:43;;;;;;;;;;;21.70;56.60;;;;;;5094665;28;19958;-67
2023/05/11 06:52:09;;;;;;;;;;;21.70;56.80;;;;;;5093311;28;19920;-67
2023/05/11 06:54:35;;;;;;;;;;;21.60;56.90;;;;;;5092353;28;19924;-67
2023/05/11 06:57:02;;;;;;;;;;;21.60;57.20;;;;;;5094140;28;20006;-64
2023/05/11 06:59:28;;;;;;;;;;;21.50;57.30;;;;;;5078361;28;19916;-67
2023/05/11 07:01:53;;;;;;;;;;;21.40;57.40;;;;;;5090763;28;19947;-68
2023/05/11 07:04:19;;;;;;;;;;;21.40;57.60;;;;;;5094793;28;20074;-70
2023/05/11 07:06:44;;;;;;;;;;;21.40;57.80;;;;;;5071641;28;19920;-70
2023/05/11 07:09:10;;;;;;;;;;;21.50;57.80;;;;;;5072382;28;19931;-70
2023/05/11 07:11:36;;;;;;;;;;;21.50;57.70;;;;;;5091194;28;19931;-70
2023/05/11 07:14:02;;;;;;;;;;;21.50;57.50;;;;;;5092973;27;19924;-67
2023/05/11 07:16:27;;;;;;;;;;;21.60;57.50;;;;;;5073213;28;19930;-70
2023/05/11 07:18:53;;;;;;;;;;;21.60;57.40;;;;;;5058819;28;19978;-69
2023/05/11 07:21:20;;;;;;;;;;;21.60;57.40;;;;;;5090934;28;20299;-70
2023/05/11 07:23:46;;;;;;;;;;;21.70;57.20;;;;;;5075330;28;20008;-68
2023/05/11 07:26:12;;;;;;;;;;;21.80;57.10;;;;;;5091542;28;20338;-66
2023/05/11 07:28:38;;;;;;;;;;;21.80;57.00;;;;;;5092400;28;19924;-68
2023/05/11 07:31:04;;;;;;;;;;;21.80;57.00;;;;;;5073694;28;19923;-69
2023/05/11 07:33:29;;;;;;;;;;;21.70;57.10;;;;;;5076292;28;19924;-69
2023/05/11 07:35:55;;;;;;;;;;;21.80;57.20;;;;;;5068203;28;20299;-68
2023/05/11 07:38:20;;;;;;;;;;;21.70;57.10;;;;;;5072759;28;20277;-68
2023/05/11 07:40:46;;;;;;;;;;;21.80;57.10;;;;;;5092420;27;19984;-67
2023/05/11 07:43:11;;;;;;;;;;;21.70;57.10;;;;;;5093274;28;19920;-72
2023/05/11 07:45:37;;;;;;;;;;;21.70;57.20;;;;;;5072288;28;20057;-71
2023/05/11 07:48:03;;;;;;;;;;;21.60;57.30;;;;;;5075618;28;19924;-70
2023/05/11 07:50:29;;;;;;;;;;;21.60;57.40;;;;;;5075072;28;19980;-70
2023/05/11 07:52:54;;;;;;;;;;;21.60;57.60;;;;;;5076080;28;19967;-70
2023/05/11 07:55:23;;;;;;;;;;;21.50;57.70;;;;;;5078400;28;20569;-70
2023/05/11 07:57:51;;;;;;;;;;;21.50;57.80;;;;;;5089948;28;19930;-70
2023/05/11 08:00:17;;;;;;;;;;;21.40;57.80;;;;;;5080651;28;20649;-70
2023/05/11 08:02:42;;;;;;;;;;;21.40;57.90;;;;;;5105926;27;20007;-70
2023/05/11 08:05:08;;;;;;;;;;;21.40;57.90;;;;;;5093658;28;20010;-70
2023/05/11 08:07:33;;;;;;;;;;;21.40;57.90;;;;;;5073387;28;20390;-70
2023/05/11 08:09:59;;;;;;;;;;;21.40;57.80;;;;;;5092341;28;19927;-70
2023/05/11 08:12:24;;;;;;;;;;;21.40;57.80;;;;;;5074570;28;19946;-71
2023/05/11 08:14:50;;;;;;;;;;;21.40;57.80;;;;;;5106220;27;19930;-65
2023/05/11 08:17:15;;;;;;;;;;;21.40;57.70;;;;;;5071805;28;19967;-67
2023/05/11 08:19:41;;;;;;;;;;;21.50;57.80;;;;;;5074381;28;19923;-69
2023/05/11 08:22:06;;;;;;;;;;;21.50;57.80;;;;;;5072835;28;19955;-69
2023/05/11 08:24:32;;;;;;;;;;;21.50;57.70;;;;;;5090949;28;19926;-67
2023/05/11 08:26:57;;;;;;;;;;;21.50;57.70;;;;;;5106305;27;19963;-67
2023/05/11 08:29:26;;;;;;;;;;;21.50;57.70;;;;;;5090472;28;19927;-68
2023/05/11 08:31:52;;;;;;;;;;;21.50;57.80;;;;;;5088576;28;19928;-68
2023/05/11 08:34:17;;;;;;;;;;;21.50;57.80;;;;;;5073026;28;20892;-69
2023/05/11 08:36:43;;;;;;;;;;;21.50;57.70;;;;;;5067243;28;19962;-66
2023/05/11 08:39:09;;;;;;;;;;;21.50;57.80;;;;;;5076491;28;20014;-69
2023/05/11 08:41:34;;;;;;;;;;;21.50;57.70;;;;;;5069790;28;19997;-70
2023/05/11 08:44:00;;;;;;;;;;;21.60;57.90;;;;;;5087132;28;20014;-69
2023/05/11 08:46:28;;;;;;;;;;;21.50;57.90;;;;;;5072560;28;19924;-69
2023/05/11 08:48:54;;;;;;;;;;;21.50;58.00;;;;;;5085945;28;19928;-69
2023/05/11 08:51:21;;;;;;;;;;;21.50;58.10;;;;;;5068390;28;20002;-68
2023/05/11 08:53:46;;;;;;;;;;;21.50;58.10;;;;;;5084001;28;19938;-69
2023/05/11 08:56:13;;;;;;;;;;;21.50;58.20;;;;;;5101205;27;19919;-69
2023/05/11 08:58:39;;;;;;;;;;;21.40;58.40;;;;;;5089909;28;19977;-69
2023/05/11 09:01:05;;;;;;;;;;;21.40;58.60;;;;;;5092186;28;19931;-70
2023/05/11 09:03:33;;;;;;;;;;;21.40;59.10;;;;;;5072290;28;19920;-70
2023/05/11 09:05:59;;;;;;;;;;;21.40;59.10;;;;;;5086207;28;19930;-68
2023/05/11 09:08:26;;;;;;;;;;;21.40;59.10;;;;;;5070201;28;19924;-69
2023/05/11 09:10:52;;;;;;;;;;;21.30;59.00;;;;;;5072950;28;19951;-69
2023/05/11 09:13:18;;;;;;;;;;;21.30;59.10;;;;;;5074008;28;20147;-70
2023/05/11 09:15:43;;;;;;;;;;;21.30;59.30;;;;;;5072350;28;19975;-66
2023/05/11 09:18:09;;;;;;;;;;;21.20;59.40;;;;;;5084769;28;19923;-65
2023/05/11 09:20:34;;;;;;;;;;;21.20;59.60;;;;;;5067906;28;19924;-67
2023/05/11 09:23:00;;;;;;;;;;;21.30;59.80;;;;;;5089406;28;20418;-69
2023/05/11 09:25:27;;;;;;;;;;;21.30;60.00;;;;;;5085033;28;19942;-69
2023/05/11 09:27:53;;;;;;;;;;;21.30;60.30;;;;;;5070702;28;20437;-64
2023/05/11 09:30:20;;;;;;;;;;;21.30;60.20;;;;;;5090323;28;20019;-70
2023/05/11 09:38:08;;;;;;;;;;;21.40;61.50;;;;;;5060057;28;19921;-70
2023/05/11 09:43:17;;;;;;;;;;;21.40;60.90;;;;;;5065717;28;19927;-70
2023/05/11 09:45:45;;;;;;;;;;;21.40;61.30;;;;;;5064619;28;19955;-69
2023/05/11 09:48:19;;;;;;;;;;;21.40;61.80;;;;;;5066652;28;19929;-67
2023/05/11 09:50:46;;;;;;;;;;;21.40;61.20;;;;;;5067058;28;19983;-67
2023/05/11 09:53:12;;;;;;;;;;;21.30;61.30;;;;;;5066002;28;19927;-68
2023/05/11 09:55:37;;;;;;;;;;;21.30;61.50;;;;;;5067863;28;19929;-67
2023/05/11 09:58:03;;;;;;;;;;;21.40;61.60;;;;;;5070505;28;19989;-68
2023/05/11 10:00:29;;;;;;;;;;;21.40;61.40;;;;;;5056201;28;19974;-68
2023/05/11 10:03:00;;;;;;;;;;;21.30;61.40;;;;;;5080797;28;19932;-70
2023/05/11 10:05:26;;;;;;;;;;;21.30;61.40;;;;;;5072546;28;19930;-70
2023/05/11 10:07:59;;;;;;;;;;;21.30;61.70;;;;;;5069309;28;19921;-69
2023/05/11 10:10:27;;;;;;;;;;;21.30;61.90;;;;;;5067744;28;20026;-70
2023/05/11 10:12:53;;;;;;;;;;;21.30;61.70;;;;;;5067212;28;19928;-72
2023/05/11 10:15:20;;;;;;;;;;;21.20;61.60;;;;;;5071051;28;19920;-71
2023/05/11 10:17:46;;;;;;;;;;;21.20;61.70;;;;;;5064225;28;19924;-70
2023/05/11 10:20:11;;;;;;;;;;;21.20;61.80;;;;;;5065861;28;19931;-72
2023/05/11 10:22:37;;;;;;;;;;;21.20;61.80;;;;;;5067387;28;19924;-72
2023/05/11 10:25:05;;;;;;;;;;;21.10;61.90;;;;;;5070253;28;19925;-71
2023/05/11 10:27:31;;;;;;;;;;;21.10;61.90;;;;;;5083730;28;19928;-71
2023/05/11 10:29:57;;;;;;;;;;;21.10;61.80;;;;;;5071264;28;19962;-70
2023/05/11 10:32:22;;;;;;;;;;;21.10;61.80;;;;;;5070139;28;19947;-71
2023/05/11 10:34:49;;;;;;;;;;;21.10;61.90;;;;;;5069856;28;20778;-70
2023/05/11 10:37:15;;;;;;;;;;;21.10;61.90;;;;;;5068976;28;19978;-70
2023/05/11 10:39:42;;;;;;;;;;;21.20;61.70;;;;;;5068443;28;20326;-73
2023/05/11 10:47:58;;;;;;;;;;;21.20;61.50;;;;;;5073023;27;19920;-69
2023/05/11 10:56:09;;;;;;;;;;;21.30;61.40;;;;;;5080472;27;19920;-69
2023/05/11 10:58:54;;;;;;;;;;;21.30;61.40;;;;;;5056963;28;19982;-68
2023/05/11 11:01:30;;;;;;;;;;;21.30;61.40;;;;;;5056363;28;19978;-69
2023/05/11 11:06:37;;;;;;;;;;;21.30;61.60;;;;;;5059427;28;19931;-69
2023/05/11 11:09:04;;;;;;;;;;;21.30;61.70;;;;;;5055124;28;19929;-69
2023/05/11 11:11:32;;;;;;;;;;;21.30;61.70;;;;;;5071649;28;19927;-70
2023/05/11 11:14:00;;;;;;;;;;;21.30;61.70;;;;;;5054791;28;19921;-69
2023/05/11 11:16:26;;;;;;;;;;;21.20;61.70;;;;;;5055277;28;19924;-69
2023/05/11 11:19:12;;;;;;;;;;;21.20;61.70;;;;;;5054871;28;19939;-68
2023/05/11 11:21:38;;;;;;;;;;;21.20;61.70;;;;;;5051418;28;20046;-68
2023/05/11 11:24:03;;;;;;;;;;;21.20;61.70;;;;;;5060295;28;20473;-67
2023/05/11 11:26:45;;;;;;;;;;;21.20;61.70;;;;;;5073754;28;19955;-68
2023/05/11 11:29:11;;;;;;;;;;;21.10;61.70;;;;;;5077522;28;19920;-68
2023/05/11 11:31:37;;;;;;;;;;;21.20;61.80;;;;;;5065044;28;20288;-68
2023/05/11 11:34:22;;;;;;;;;;;21.10;61.70;;;;;;5057931;28;20052;-68
2023/05/11 11:39:45;;;;;;;;;;;21.00;61.80;;;;;;5088865;27;19926;-68
2023/05/11 11:44:51;;;;;;;;;;;21.00;61.90;;;;;;5086930;27;19927;-70
2023/05/11 11:47:18;;;;;;;;;;;20.90;61.90;;;;;;5119392;27;19924;-71
2023/05/11 11:49:45;;;;;;;;;;;21.00;62.00;;;;;;5086822;28;19920;-71
2023/05/11 11:52:12;;;;;;;;;;;21.00;62.10;;;;;;5085985;28;20326;-70
2023/05/11 11:54:38;;;;;;;;;;;20.90;62.00;;;;;;5084494;28;19931;-69
2023/05/11 11:57:04;;;;;;;;;;;20.90;62.00;;;;;;5117699;27;19924;-69
2023/05/11 11:59:44;;;;;;;;;;;20.90;62.00;;;;;;5086045;28;19955;-71
2023/05/11 12:02:10;;;;;;;;;;;20.90;62.00;;;;;;5085067;28;19998;-71
2023/05/11 12:04:38;;;;;;;;;;;20.90;62.00;;;;;;5085147;28;19981;-69
2023/05/11 12:07:06;;;;;;;;;;;20.90;62.10;;;;;;5086507;28;19924;-71
2023/05/11 12:09:32;;;;;;;;;;;20.90;62.00;;;;;;5084832;28;19924;-70
2023/05/11 12:11:58;;;;;;;;;;;20.90;62.00;;;;;;5092230;28;20454;-70
2023/05/11 12:14:25;;;;;;;;;;;20.90;62.00;;;;;;5086365;28;19939;-70
2023/05/11 12:17:12;;;;;;;;;;;20.90;62.00;;;;;;5086199;28;19924;-70
2023/05/11 12:19:38;;;;;;;;;;;20.90;62.10;;;;;;5085417;28;20442;-71
2023/05/11 12:22:03;;;;;;;;;;;20.90;62.00;;;;;;5089058;28;19924;-71
2023/05/11 12:24:29;;;;;;;;;;;20.90;62.10;;;;;;5089567;28;20479;-71
2023/05/11 12:26:55;;;;;;;;;;;20.90;62.00;;;;;;5086892;28;19927;-70
2023/05/11 12:29:21;;;;;;;;;;;20.90;62.00;;;;;;5084460;28;20012;-70
2023/05/11 12:31:46;;;;;;;;;;;20.90;62.00;;;;;;5085233;28;19963;-71
2023/05/11 12:34:13;;;;;;;;;;;20.90;62.00;;;;;;5083284;28;19968;-72
2023/05/11 12:36:38;;;;;;;;;;;20.90;62.00;;;;;;5086370;28;20001;-71
2023/05/11 12:39:04;;;;;;;;;;;20.80;62.00;;;;;;5087550;28;20493;-69
2023/05/11 12:41:29;;;;;;;;;;;20.90;62.00;;;;;;5084663;28;19925;-70
2023/05/11 12:43:55;;;;;;;;;;;20.80;61.90;;;;;;5093569;28;19924;-70
2023/05/11 12:46:21;;;;;;;;;;;20.80;62.10;;;;;;5088176;28;19928;-70
2023/05/11 12:48:47;;;;;;;;;;;20.80;62.30;;;;;;5087878;28;19979;-70
2023/05/11 12:51:12;;;;;;;;;;;20.90;62.70;;;;;;5104567;28;20012;-71
2023/05/11 12:53:39;;;;;;;;;;;20.90;62.80;;;;;;5085712;28;20407;-70
2023/05/11 12:56:05;;;;;;;;;;;20.90;62.90;;;;;;5075168;28;20375;-70
2023/05/11 12:58:34;;;;;;;;;;;21.00;62.90;;;;;;5059716;28;19924;-70
2023/05/11 13:01:00;;;;;;;;;;;21.00;62.90;;;;;;5073299;28;19920;-70
2023/05/11 13:03:27;;;;;;;;;;;21.00;63.00;;;;;;5094864;28;19928;-72
2023/05/11 13:06:08;;;;;;;;;;;21.00;63.10;;;;;;5075010;28;19928;-72
2023/05/11 13:08:35;;;;;;;;;;;21.00;63.10;;;;;;5096472;28;19923;-69
2023/05/11 13:11:21;;;;;;;;;;;21.00;63.30;;;;;;5077260;28;19920;-70
2023/05/11 13:13:47;;;;;;;;;;;21.00;63.30;;;;;;5085764;28;19977;-71
2023/05/11 13:16:22;;;;;;;;;;;21.10;63.50;;;;;;5078088;28;20009;-70
2023/05/11 13:18:56;;;;;;;;;;;21.10;63.50;;;;;;5084556;28;19926;-70
2023/05/11 13:21:21;;;;;;;;;;;21.10;64.20;;;;;;5108919;27;20482;-71
2023/05/11 13:23:48;;;;;;;;;;;21.10;63.50;;;;;;5079896;28;19997;-70
2023/05/11 13:26:20;;;;;;;;;;;21.10;63.70;;;;;;5082309;28;19926;-71
2023/05/11 13:28:46;;;;;;;;;;;21.00;63.50;;;;;;5084816;28;19926;-71
2023/05/11 13:31:11;;;;;;;;;;;21.00;63.60;;;;;;5085137;28;20226;-71
2023/05/11 13:33:37;;;;;;;;;;;21.10;63.90;;;;;;5081263;28;19920;-72
2023/05/11 13:36:02;;;;;;;;;;;21.00;63.80;;;;;;5082604;28;19955;-69
2023/05/11 13:38:28;;;;;;;;;;;21.10;63.90;;;;;;5081169;28;19920;-73
2023/05/11 13:40:53;;;;;;;;;;;21.10;63.80;;;;;;5079709;28;20671;-71
2023/05/11 13:43:19;;;;;;;;;;;21.00;63.70;;;;;;5083509;28;19924;-71
2023/05/11 13:45:45;;;;;;;;;;;21.00;63.70;;;;;;5070129;28;19977;-71
2023/05/11 13:48:10;;;;;;;;;;;21.10;63.60;;;;;;5071724;28;19970;-70
2023/05/11 13:50:36;;;;;;;;;;;21.10;63.50;;;;;;5077060;28;19951;-71
2023/05/11 13:53:01;;;;;;;;;;;21.00;63.40;;;;;;5090828;28;19920;-69
2023/05/11 13:55:28;;;;;;;;;;;21.10;63.50;;;;;;5110370;28;19930;-68
2023/05/11 13:57:54;;;;;;;;;;;21.00;63.50;;;;;;5092539;28;19920;-68
2023/05/11 14:00:20;;;;;;;;;;;21.10;63.60;;;;;;5107413;28;20570;-71
2023/05/11 14:02:48;;;;;;;;;;;21.00;63.40;;;;;;5090065;28;19923;-71
2023/05/11 14:05:13;;;;;;;;;;;21.00;63.40;;;;;;5090139;28;19920;-71
2023/05/11 14:07:40;;;;;;;;;;;21.10;63.50;;;;;;5089334;28;20440;-71
2023/05/11 14:10:06;;;;;;;;;;;21.00;63.40;;;;;;5090818;28;20385;-71
2023/05/11 14:12:31;;;;;;;;;;;21.00;63.40;;;;;;5107731;28;19920;-71
2023/05/11 14:14:57;;;;;;;;;;;21.00;63.40;;;;;;5091977;28;19926;-71
2023/05/11 14:17:23;;;;;;;;;;;21.00;63.40;;;;;;5091349;28;19981;-71
2023/05/11 14:19:48;;;;;;;;;;;21.00;63.40;;;;;;5109259;28;19926;-71
2023/05/11 14:22:14;;;;;;;;;;;21.00;63.40;;;;;;5089824;28;19923;-71
2023/05/11 14:24:39;;;;;;;;;;;20.90;63.40;;;;;;5088950;28;20023;-72
2023/05/11 14:27:05;;;;;;;;;;;20.90;64.10;;;;;;5091302;28;19928;-71
2023/05/11 14:29:30;;;;;;;;;;;20.90;63.40;;;;;;5090599;28;19920;-71
2023/05/11 14:31:56;;;;;;;;;;;20.90;63.40;;;;;;5089587;28;19920;-71
2023/05/11 14:34:21;;;;;;;;;;;20.90;63.30;;;;;;5109512;28;19923;-71
2023/05/11 14:36:47;;;;;;;;;;;20.80;63.30;;;;;;5088289;28;19919;-71
2023/05/11 14:39:12;;;;;;;;;;;20.80;63.40;;;;;;5107001;28;19923;-71
2023/05/11 14:41:38;;;;;;;;;;;20.80;63.50;;;;;;5107226;28;19963;-71
2023/05/11 14:44:03;;;;;;;;;;;20.80;63.40;;;;;;5086706;28;19931;-71